Time;durP1;ratioP1;P1;durP2;ratioP2;P2;SDS_P1;SDS_P2;PMS_P1;PMS_P2;Temp;Humidity;BMP_temperature;BMP_pressure;BME280_temperature;BME280_humidity;BME280_pressure;Samples;Min_cycle;Max_cycle;Signal;HPM_P1;HPM_P2
2022/08/07 00:00:47;;;;;;;2.23;1.83;;;23.20;43.50;24.30;101751.00;;;;5029539;28;20206;-43
2022/08/07 00:03:13;;;;;;;2.13;1.93;;;23.20;43.80;24.30;101757.00;;;;5029711;28;20198;-43
2022/08/07 00:05:38;;;;;;;2.93;1.87;;;23.20;43.60;24.30;101765.00;;;;5029400;28;20216;-43
2022/08/07 00:08:04;;;;;;;2.20;2.00;;;23.20;43.70;24.20;101748.00;;;;5029258;28;20206;-43
2022/08/07 00:10:30;;;;;;;1.90;1.80;;;23.20;43.70;24.20;101747.00;;;;5029599;28;20387;-43
2022/08/07 00:12:57;;;;;;;1.93;1.83;;;23.10;43.60;24.20;101744.00;;;;5029423;28;20590;-43
2022/08/07 00:15:24;;;;;;;2.47;2.10;;;23.10;43.60;24.20;101740.00;;;;5029220;28;20218;-43
2022/08/07 00:17:50;;;;;;;2.60;2.07;;;23.00;43.50;24.10;101741.00;;;;5029218;28;20163;-43
2022/08/07 00:20:16;;;;;;;2.57;2.00;;;23.00;43.50;24.10;101737.00;;;;5029231;28;20262;-43
2022/08/07 00:22:41;;;;;;;2.67;1.90;;;22.90;43.60;24.00;101734.00;;;;5044442;28;20206;-43
2022/08/07 00:25:08;;;;;;;1.90;1.80;;;22.90;43.60;24.00;101729.00;;;;5028900;28;20215;-44
2022/08/07 00:27:34;;;;;;;2.10;1.90;;;22.90;43.50;24.00;101725.00;;;;5028366;28;20340;-44
2022/08/07 00:30:01;;;;;;;1.90;1.80;;;22.80;43.60;24.00;101723.00;;;;5044190;28;20199;-43
2022/08/07 00:32:27;;;;;;;2.10;1.90;;;22.80;43.60;23.90;101722.00;;;;5028731;28;20550;-43
2022/08/07 00:34:53;;;;;;;1.90;1.80;;;22.80;43.60;23.90;101722.00;;;;5028514;28;20175;-43
2022/08/07 00:37:18;;;;;;;2.00;1.80;;;22.80;43.70;23.90;101721.00;;;;5028573;28;20206;-43
2022/08/07 00:39:44;;;;;;;2.10;1.90;;;22.80;43.60;23.90;101718.00;;;;5028528;28;20182;-44
2022/08/07 00:42:10;;;;;;;2.10;1.73;;;22.80;43.70;23.80;101723.00;;;;5028560;28;20179;-43
2022/08/07 00:44:36;;;;;;;2.07;1.80;;;22.80;43.70;23.80;101716.00;;;;5043660;28;20205;-44
2022/08/07 00:47:03;;;;;;;2.00;1.80;;;22.80;43.80;23.80;101717.00;;;;5028240;28;20190;-42
2022/08/07 00:49:29;;;;;;;2.23;1.80;;;22.80;43.90;23.80;101717.00;;;;5028023;28;20306;-43
2022/08/07 00:51:54;;;;;;;2.07;1.87;;;22.80;43.70;23.80;101711.00;;;;5028099;28;20171;-43
2022/08/07 00:54:20;;;;;;;2.43;1.77;;;22.70;43.70;23.80;101714.00;;;;5043197;28;20171;-43
2022/08/07 00:56:47;;;;;;;2.60;1.87;;;22.70;43.80;23.70;101707.00;;;;5028564;28;20203;-43
2022/08/07 00:59:12;;;;;;;2.20;1.87;;;22.70;43.80;23.70;101704.00;;;;5028239;28;20216;-43
2022/08/07 01:01:38;;;;;;;2.00;1.80;;;22.70;43.90;23.70;101712.00;;;;5043550;28;20374;-43
2022/08/07 01:04:07;;;;;;;1.63;1.53;;;22.70;44.00;23.70;101709.00;;;;5028096;28;20179;-43
2022/08/07 01:06:33;;;;;;;2.00;1.80;;;22.60;43.80;23.70;101705.00;;;;5026574;28;20214;-44
2022/08/07 01:08:59;;;;;;;1.80;1.53;;;22.70;44.00;23.60;101701.00;;;;5027275;28;20213;-43
2022/08/07 01:11:25;;;;;;;1.60;1.50;;;22.50;44.00;23.60;101705.00;;;;5043012;28;20171;-43
2022/08/07 01:13:51;;;;;;;2.43;1.80;;;22.60;44.10;23.60;101698.00;;;;5043245;28;20171;-43
2022/08/07 01:16:17;;;;;;;1.83;1.60;;;22.60;44.10;23.60;101700.00;;;;5042914;28;20645;-44
2022/08/07 01:18:42;;;;;;;1.90;1.70;;;22.50;44.00;23.60;101689.00;;;;5027582;28;20202;-43
2022/08/07 01:21:15;;;;;;;1.70;1.60;;;22.60;44.10;23.60;101690.00;;;;5042879;28;20214;-43
2022/08/07 01:23:43;;;;;;;2.10;1.90;;;22.50;44.20;23.50;101704.00;;;;5027636;28;20179;-43
2022/08/07 01:26:10;;;;;;;1.90;1.70;;;22.60;44.20;23.50;101698.00;;;;5027507;28;20199;-43
2022/08/07 01:28:36;;;;;;;2.17;1.70;;;22.50;44.10;23.50;101692.00;;;;5027423;28;20792;-44
2022/08/07 01:31:02;;;;;;;2.37;1.80;;;22.50;44.20;23.50;101696.00;;;;5042992;28;20167;-43
2022/08/07 01:33:28;;;;;;;1.90;1.80;;;22.50;44.10;23.50;101699.00;;;;5042389;28;20245;-43
2022/08/07 01:35:55;;;;;;;1.60;1.50;;;22.50;44.10;23.50;101696.00;;;;5027727;28;20524;-43
2022/08/07 01:38:22;;;;;;;1.80;1.70;;;22.50;44.10;23.40;101687.00;;;;5042925;28;20237;-43
2022/08/07 01:40:47;;;;;;;2.43;1.47;;;22.40;44.10;23.40;101685.00;;;;5030126;28;20175;-43
2022/08/07 01:43:13;;;;;;;1.60;1.50;;;22.40;44.20;23.40;101675.00;;;;5044312;28;20190;-44
2022/08/07 01:45:39;;;;;;;1.93;1.73;;;22.40;44.30;23.40;101679.00;;;;5042758;28;20206;-43
2022/08/07 01:48:05;;;;;;;1.70;1.57;;;22.40;44.30;23.40;101679.00;;;;5042395;28;20182;-43
2022/08/07 01:50:30;;;;;;;2.10;1.70;;;22.40;44.50;23.40;101678.00;;;;5028622;28;20179;-43
2022/08/07 01:52:57;;;;;;;1.90;1.80;;;22.40;44.70;23.40;101694.00;;;;5045608;28;20175;-43
2022/08/07 01:55:28;;;;;;;1.80;1.70;;;22.40;45.00;23.30;101688.00;;;;5027480;28;20214;-43
2022/08/07 01:57:56;;;;;;;1.70;1.60;;;22.40;45.30;23.30;101679.00;;;;5042424;28;20175;-44
2022/08/07 02:00:22;;;;;;;1.93;1.83;;;22.30;45.40;23.30;101683.00;;;;5042881;28;20174;-43
2022/08/07 02:02:51;;;;;;;2.77;1.90;;;22.40;45.50;23.30;101687.00;;;;5042939;28;20186;-43
2022/08/07 02:05:32;;;;;;;2.17;1.80;;;22.40;45.50;23.30;101690.00;;;;5042714;28;20684;-43
2022/08/07 02:08:00;;;;;;;1.97;1.87;;;22.30;45.40;23.30;101676.00;;;;5040318;28;20167;-43
2022/08/07 02:10:26;;;;;;;2.77;1.70;;;22.30;45.50;23.30;101696.00;;;;5042779;28;20166;-43
2022/08/07 02:12:53;;;;;;;2.77;1.90;;;22.20;45.60;23.20;101700.00;;;;5042760;28;20221;-43
2022/08/07 02:15:23;;;;;;;2.10;1.80;;;22.20;46.10;23.20;101699.00;;;;5042656;28;20623;-43
2022/08/07 02:17:49;;;;;;;2.90;2.00;;;22.10;46.00;23.20;101675.00;;;;5027303;28;20198;-44
2022/08/07 02:20:15;;;;;;;1.93;1.80;;;22.20;46.10;23.20;101690.00;;;;5042578;28;20236;-43
2022/08/07 02:22:40;;;;;;;3.23;1.90;;;22.20;46.10;23.20;101669.00;;;;5042527;28;20183;-43
2022/08/07 02:25:08;;;;;;;2.53;1.90;;;22.20;46.10;23.10;101692.00;;;;5042591;28;20194;-43
2022/08/07 02:27:34;;;;;;;2.03;1.83;;;22.10;46.30;23.10;101689.00;;;;5026899;28;20213;-43
2022/08/07 02:30:00;;;;;;;2.00;1.90;;;22.10;46.80;23.10;101682.00;;;;5042128;28;20285;-43
2022/08/07 02:32:26;;;;;;;2.37;2.00;;;22.10;46.30;23.10;101670.00;;;;5042226;28;20167;-43
2022/08/07 02:34:51;;;;;;;2.90;2.03;;;22.10;46.40;23.10;101683.00;;;;5041887;28;20534;-43
2022/08/07 02:37:17;;;;;;;2.77;1.90;;;22.10;46.30;23.00;101676.00;;;;5041865;28;20650;-44
2022/08/07 02:39:44;;;;;;;2.17;1.80;;;22.00;46.40;23.00;101687.00;;;;5041973;28;20630;-43
2022/08/07 02:42:10;;;;;;;2.23;2.03;;;22.00;46.30;23.00;101661.00;;;;5042666;28;20699;-43
2022/08/07 02:44:35;;;;;;;2.13;1.93;;;22.00;46.30;23.00;101697.00;;;;5046008;28;20191;-43
2022/08/07 02:47:02;;;;;;;1.93;1.83;;;22.00;46.40;23.00;101683.00;;;;5030857;28;20199;-43
2022/08/07 02:49:28;;;;;;;2.03;1.93;;;22.00;46.40;23.00;101685.00;;;;5029471;28;20199;-43
2022/08/07 02:51:55;;;;;;;2.07;1.87;;;22.00;46.50;23.00;101686.00;;;;5046408;28;20246;-43
2022/08/07 02:54:20;;;;;;;2.30;2.10;;;22.00;46.60;22.90;101677.00;;;;5046048;28;20195;-43
2022/08/07 02:56:46;;;;;;;2.60;2.00;;;21.90;46.60;22.90;101689.00;;;;5046017;28;20612;-43
2022/08/07 02:59:16;;;;;;;2.30;2.10;;;21.90;46.70;22.90;101690.00;;;;5045924;28;20637;-43
2022/08/07 03:01:41;;;;;;;2.30;2.10;;;22.00;47.40;22.90;101685.00;;;;5045341;28;20580;-43
2022/08/07 03:04:08;;;;;;;2.40;2.20;;;21.90;46.70;22.90;101686.00;;;;5045689;28;20186;-43
2022/08/07 03:06:34;;;;;;;2.30;2.10;;;21.90;46.90;22.90;101685.00;;;;5045726;28;20199;-43
2022/08/07 03:09:01;;;;;;;3.37;2.50;;;21.90;46.90;22.80;101654.00;;;;5045304;28;20456;-43
2022/08/07 03:11:27;;;;;;;3.20;2.20;;;21.90;46.90;22.80;101682.00;;;;5045251;28;20189;-43
2022/08/07 03:13:52;;;;;;;2.77;2.10;;;21.90;47.00;22.80;101681.00;;;;5028957;28;20257;-42
2022/08/07 03:16:18;;;;;;;2.50;2.07;;;21.90;47.00;22.80;101680.00;;;;5029988;28;20191;-43
2022/08/07 03:18:44;;;;;;;2.43;2.20;;;21.80;47.00;22.80;101677.00;;;;5044959;28;20187;-43
2022/08/07 03:21:09;;;;;;;2.70;2.10;;;21.80;46.90;22.80;101684.00;;;;5045302;28;20186;-43
2022/08/07 03:23:35;;;;;;;2.50;2.00;;;21.80;47.10;22.70;101681.00;;;;5045093;28;20179;-43
2022/08/07 03:26:01;;;;;;;2.23;2.03;;;21.80;47.30;22.70;101674.00;;;;5045238;28;20199;-43
2022/08/07 03:28:27;;;;;;;3.20;2.10;;;21.80;47.30;22.70;101672.00;;;;5045081;28;20289;-43
2022/08/07 03:31:17;;;;;;;2.20;2.00;;;21.70;47.20;22.70;101679.00;;;;5045051;28;20690;-43
2022/08/07 03:33:38;;;;;;;2.70;2.10;;;21.70;47.20;22.70;101678.00;;;;5042656;28;20186;-43
2022/08/07 03:36:05;;;;;;;2.20;2.00;;;21.70;47.30;22.70;101674.00;;;;5045179;28;20226;-43
2022/08/07 03:38:30;;;;;;;3.10;2.00;;;21.70;47.20;22.60;101676.00;;;;5027911;28;20572;-43
2022/08/07 03:40:56;;;;;;;2.60;2.10;;;21.70;47.20;22.60;101665.00;;;;5045243;28;20194;-43
2022/08/07 03:43:22;;;;;;;3.63;2.03;;;21.70;47.20;22.60;101683.00;;;;5044729;28;20175;-43
2022/08/07 03:45:48;;;;;;;3.07;2.40;;;21.70;47.20;22.60;101682.00;;;;5044822;28;20257;-43
2022/08/07 03:48:14;;;;;;;2.93;2.00;;;21.60;47.10;22.60;101680.00;;;;5044577;28;20685;-43
2022/08/07 03:50:39;;;;;;;3.97;3.63;;;21.60;47.10;22.50;101678.00;;;;5045029;28;20175;-44
2022/08/07 03:53:05;;;;;;;5.23;4.73;;;21.60;47.10;22.30;101678.00;;;;5027779;28;20442;-43
2022/08/07 03:55:31;;;;;;;3.63;3.23;;;21.60;47.20;22.50;101682.00;;;;5044849;28;20201;-43
2022/08/07 03:57:56;;;;;;;3.03;2.73;;;21.60;47.30;22.50;101680.00;;;;5046775;28;20229;-43
2022/08/07 04:00:22;;;;;;;2.83;2.50;;;21.60;47.30;22.50;101682.00;;;;5043903;28;20218;-43
2022/08/07 04:02:48;;;;;;;2.47;2.23;;;21.50;47.20;22.50;101682.00;;;;5043416;28;20221;-43
2022/08/07 04:05:14;;;;;;;2.40;2.20;;;21.50;47.20;22.50;101668.00;;;;5043503;28;20190;-43
2022/08/07 04:07:45;;;;;;;2.50;2.30;;;21.50;47.20;22.40;101672.00;;;;5043311;28;20175;-43
2022/08/07 04:10:10;;;;;;;3.63;2.30;;;21.50;47.40;22.40;101676.00;;;;5043453;28;20233;-43
2022/08/07 04:12:36;;;;;;;2.60;2.40;;;21.50;47.50;22.40;101675.00;;;;5028615;28;20182;-43
2022/08/07 04:15:02;;;;;;;2.53;2.20;;;21.40;47.40;22.40;101677.00;;;;5046026;28;20200;-43
2022/08/07 04:17:28;;;;;;;3.40;2.33;;;21.50;47.50;22.40;101669.00;;;;5045762;28;20171;-43
2022/08/07 04:19:53;;;;;;;3.27;2.30;;;21.40;47.50;22.30;101677.00;;;;5044861;28;20662;-43
2022/08/07 04:22:21;;;;;;;2.63;2.30;;;21.40;47.50;22.30;101683.00;;;;5029003;28;20410;-43
2022/08/07 04:24:47;;;;;;;3.20;2.33;;;21.40;47.60;22.30;101681.00;;;;5044263;28;20179;-43
2022/08/07 04:27:12;;;;;;;2.40;2.20;;;21.40;47.80;22.30;101676.00;;;;5043929;28;20245;-43
2022/08/07 04:29:38;;;;;;;2.20;1.97;;;21.30;47.80;22.30;101683.00;;;;5028424;28;20203;-43
2022/08/07 04:32:05;;;;;;;2.30;2.10;;;21.30;47.90;22.00;101686.00;;;;5044131;28;20547;-43
2022/08/07 04:34:31;;;;;;;2.67;2.17;;;21.30;47.90;22.10;101693.00;;;;5043436;28;20167;-43
2022/08/07 04:36:57;;;;;;;3.10;2.13;;;21.30;47.90;22.20;101688.00;;;;5042588;28;20197;-43
2022/08/07 04:39:22;;;;;;;3.13;2.17;;;21.20;47.80;22.20;101691.00;;;;5041436;28;20462;-43
2022/08/07 04:41:48;;;;;;;2.60;1.90;;;21.20;47.90;22.20;101694.00;;;;5005696;28;20207;-43
2022/08/07 04:44:14;;;;;;;3.33;2.20;;;21.20;47.80;22.20;101696.00;;;;5008116;28;20866;-43
2022/08/07 04:47:01;;;;;;;2.20;2.00;;;21.20;47.80;22.10;101701.00;;;;5007332;28;20223;-43
2022/08/07 04:49:52;;;;;;;1.90;1.80;;;21.20;47.90;22.10;101682.00;;;;5009156;28;20233;-43
2022/08/07 04:52:38;;;;;;;2.10;1.90;;;21.20;47.80;22.10;101695.00;;;;5007231;28;20163;-43
2022/08/07 04:55:17;;;;;;;2.20;2.00;;;21.20;47.80;22.10;101697.00;;;;5007364;28;20175;-43
2022/08/07 04:57:51;;;;;;;2.07;1.90;;;21.20;47.70;22.10;101692.00;;;;5007862;28;20152;-43
2022/08/07 05:00:44;;;;;;;2.37;2.00;;;21.20;47.60;22.00;101700.00;;;;5008021;28;20251;-43
2022/08/07 05:03:23;;;;;;;1.90;1.80;;;21.20;47.70;22.00;101700.00;;;;5007295;28;20685;-43
2022/08/07 05:06:24;;;;;;;2.23;2.03;;;21.20;47.50;22.00;101695.00;;;;5006115;28;20187;-43
2022/08/07 05:09:01;;;;;;;1.90;1.80;;;21.20;47.40;22.00;101704.00;;;;5007441;28;20190;-42
2022/08/07 05:11:34;;;;;;;2.87;1.90;;;21.20;47.40;22.00;101706.00;;;;4991749;28;20187;-43
2022/08/07 05:14:16;;;;;;;2.40;2.00;;;21.20;47.40;22.00;101700.00;;;;5006894;28;20171;-42
2022/08/07 05:16:46;;;;;;;3.00;2.20;;;21.20;47.40;22.00;101708.00;;;;5007336;28;20312;-44
2022/08/07 05:19:16;;;;;;;2.50;2.27;;;21.20;47.50;22.00;101704.00;;;;5006674;28;20638;-43
2022/08/07 05:21:46;;;;;;;5.67;2.00;;;21.20;47.70;22.00;101705.00;;;;5006712;28;20182;-42
2022/08/07 05:24:12;;;;;;;2.93;2.10;;;21.20;47.70;22.00;101718.00;;;;5006108;28;20164;-42
2022/08/07 05:26:38;;;;;;;3.10;1.90;;;21.20;47.80;22.00;101712.00;;;;5007576;28;20562;-42
2022/08/07 05:29:06;;;;;;;4.50;2.00;;;21.20;47.80;22.00;101707.00;;;;5006269;28;20234;-43
2022/08/07 05:31:37;;;;;;;2.10;1.80;;;21.20;47.90;22.00;101703.00;;;;5006839;28;20669;-42
2022/08/07 05:34:08;;;;;;;5.00;1.90;;;21.20;48.00;22.00;101715.00;;;;5006187;28;20306;-42
2022/08/07 05:36:33;;;;;;;3.90;2.13;;;21.20;48.00;21.90;101689.00;;;;5006266;28;20191;-42
2022/08/07 05:39:00;;;;;;;11.83;2.80;;;21.20;48.10;21.90;101716.00;;;;5006182;28;20676;-42
2022/08/07 05:41:25;;;;;;;9.33;2.67;;;21.20;48.40;21.90;101708.00;;;;5006649;28;20245;-43
2022/08/07 05:43:53;;;;;;;6.87;3.17;;;21.20;48.40;21.90;101722.00;;;;5005856;28;20760;-42
2022/08/07 05:46:19;;;;;;;5.53;3.20;;;21.10;48.30;21.90;101721.00;;;;5006404;28;20301;-41
2022/08/07 05:48:45;;;;;;;4.13;2.23;;;21.10;48.40;21.90;101726.00;;;;5005818;28;20579;-41
2022/08/07 05:51:11;;;;;;;4.93;2.53;;;21.10;49.10;21.90;101720.00;;;;5006770;28;20187;-41
2022/08/07 05:53:36;;;;;;;6.30;2.40;;;21.10;48.60;21.90;101730.00;;;;5007815;28;20247;-43
2022/08/07 05:56:03;;;;;;;5.73;2.40;;;21.10;48.50;21.90;101704.00;;;;5007388;28;20188;-42
2022/08/07 05:58:28;;;;;;;6.47;2.30;;;21.10;48.60;21.80;101723.00;;;;4989424;28;20555;-41
2022/08/07 06:00:54;;;;;;;3.73;2.27;;;21.10;48.50;21.80;101727.00;;;;5006068;28;20179;-43
2022/08/07 06:03:20;;;;;;;3.67;2.00;;;21.10;48.60;21.80;101705.00;;;;5006448;28;20769;-43
2022/08/07 06:05:46;;;;;;;3.13;2.20;;;21.10;48.60;21.80;101734.00;;;;5005990;28;20191;-43
2022/08/07 06:08:12;;;;;;;4.77;2.17;;;21.10;48.70;21.80;101727.00;;;;5006246;28;20168;-42
2022/08/07 06:10:37;;;;;;;4.47;2.10;;;21.10;48.70;21.80;101735.00;;;;5006455;28;20202;-43
2022/08/07 06:13:03;;;;;;;2.90;2.13;;;21.10;48.80;21.80;101729.00;;;;5006102;28;20263;-43
2022/08/07 06:15:29;;;;;;;2.33;2.07;;;21.10;48.80;21.80;101730.00;;;;5008039;28;20262;-43
2022/08/07 06:17:55;;;;;;;3.00;2.10;;;21.10;48.70;21.80;101734.00;;;;5009608;28;20194;-43
2022/08/07 06:20:22;;;;;;;2.30;2.03;;;21.10;48.80;21.80;101710.00;;;;5011025;28;20227;-43
2022/08/07 06:22:48;;;;;;;3.23;1.80;;;21.10;48.80;21.80;101738.00;;;;5009676;28;20178;-43
2022/08/07 06:25:13;;;;;;;2.23;1.80;;;21.10;48.70;21.70;101741.00;;;;5009311;28;20202;-43
2022/08/07 06:27:39;;;;;;;2.63;1.90;;;21.10;48.60;21.70;101712.00;;;;5010657;28;20190;-43
2022/08/07 06:30:06;;;;;;;1.90;1.80;;;21.10;48.50;21.70;101730.00;;;;5009704;28;20203;-43
2022/08/07 06:32:32;;;;;;;2.03;1.67;;;21.10;48.50;21.70;101723.00;;;;5011297;28;20187;-43
2022/08/07 06:34:59;;;;;;;2.33;1.80;;;21.10;48.30;21.70;101727.00;;;;5009105;28;20171;-43
2022/08/07 06:37:25;;;;;;;2.10;1.70;;;21.10;48.40;21.70;101738.00;;;;5010740;28;20267;-43
2022/08/07 06:39:52;;;;;;;1.90;1.70;;;21.10;48.40;21.60;101718.00;;;;5009385;28;20251;-43
2022/08/07 06:42:35;;;;;;;1.70;1.60;;;21.10;48.30;21.30;101730.00;;;;5010553;28;20183;-43
2022/08/07 06:45:02;;;;;;;1.90;1.63;;;21.10;48.30;21.60;101716.00;;;;5013421;28;20274;-43
2022/08/07 06:47:28;;;;;;;2.80;1.70;;;21.10;48.20;21.60;101727.00;;;;5008556;28;20627;-43
2022/08/07 06:49:53;;;;;;;1.80;1.70;;;21.10;48.40;21.60;101721.00;;;;5014560;28;20217;-43
2022/08/07 06:52:19;;;;;;;1.73;1.60;;;21.00;48.30;21.50;101719.00;;;;5045344;28;20191;-43
2022/08/07 06:54:45;;;;;;;2.00;1.60;;;21.00;48.20;21.50;101724.00;;;;5046026;28;20155;-43
2022/08/07 06:57:12;;;;;;;1.70;1.60;;;21.00;48.40;21.50;101707.00;;;;5045076;28;20195;-43
2022/08/07 06:59:39;;;;;;;2.03;1.50;;;21.00;48.40;21.50;101693.00;;;;5045675;28;20242;-43
2022/08/07 07:02:07;;;;;;;1.77;1.67;;;21.00;48.60;21.50;101703.00;;;;5030094;28;20373;-43
2022/08/07 07:04:32;;;;;;;1.70;1.60;;;21.00;48.30;21.50;101721.00;;;;5028740;28;20183;-43
2022/08/07 07:06:58;;;;;;;1.67;1.57;;;21.00;48.40;21.50;101723.00;;;;5027013;28;20201;-42
2022/08/07 07:09:33;;;;;;;2.20;1.63;;;20.90;48.50;21.50;101718.00;;;;4950655;28;20213;-42
2022/08/07 07:12:05;;;;;;;1.70;1.60;;;20.90;48.70;21.50;101714.00;;;;5008709;28;20182;-42
2022/08/07 07:15:10;;;;;;;2.03;1.60;;;20.90;48.80;21.50;101714.00;;;;5021918;28;20166;-42
2022/08/07 07:17:52;;;;;;;1.70;1.60;;;20.90;48.80;21.50;101710.00;;;;5022679;28;20190;-42
2022/08/07 07:20:20;;;;;;;1.50;1.40;;;20.90;48.80;21.50;101704.00;;;;5028616;28;20799;-42
2022/08/07 07:22:47;;;;;;;2.47;1.60;;;20.90;48.80;21.50;101704.00;;;;5029623;28;20671;-43
2022/08/07 07:25:13;;;;;;;2.03;1.60;;;20.90;49.40;21.50;101711.00;;;;5028205;28;20223;-43
2022/08/07 07:28:02;;;;;;;2.00;1.40;;;20.90;48.80;21.50;101707.00;;;;5007875;28;20238;-43
2022/08/07 07:30:33;;;;;;;1.50;1.40;;;20.90;48.90;21.50;101701.00;;;;4988526;28;20297;-42
2022/08/07 07:33:00;;;;;;;1.40;1.30;;;20.80;49.20;21.40;101685.00;;;;5009400;28;20170;-42
2022/08/07 07:35:25;;;;;;;2.87;1.60;;;20.80;49.30;21.40;101709.00;;;;5008948;28;20253;-42
2022/08/07 07:37:51;;;;;;;1.43;1.30;;;20.80;49.30;21.40;101706.00;;;;5009932;28;20850;-43
2022/08/07 07:40:19;;;;;;;1.80;1.40;;;20.80;49.30;21.50;101706.00;;;;5009884;28;20258;-43
2022/08/07 07:42:51;;;;;;;1.77;1.43;;;20.80;49.30;21.50;101692.00;;;;5009000;28;20171;-43
2022/08/07 07:45:18;;;;;;;1.67;1.50;;;20.80;49.30;21.20;101701.00;;;;5008888;28;20300;-43
2022/08/07 07:47:44;;;;;;;2.50;1.60;;;20.90;49.80;21.50;101695.00;;;;5008247;28;21021;-43
2022/08/07 07:50:10;;;;;;;3.13;1.50;;;21.00;50.20;21.50;101700.00;;;;5008717;28;20203;-42
2022/08/07 07:52:37;;;;;;;3.07;1.53;;;21.00;50.00;21.50;101698.00;;;;5009233;28;20183;-43
2022/08/07 07:55:03;;;;;;;1.60;1.50;;;21.00;50.20;21.50;101704.00;;;;5007891;28;20241;-44
2022/08/07 07:57:29;;;;;;;1.40;1.30;;;21.00;50.00;21.50;101700.00;;;;4991955;28;20221;-43
2022/08/07 07:59:55;;;;;;;1.93;1.50;;;21.00;50.10;21.60;101696.00;;;;5008223;28;20261;-43
2022/08/07 08:02:20;;;;;;;1.63;1.43;;;21.00;50.20;21.60;101689.00;;;;5008233;28;20175;-43
2022/08/07 08:04:46;;;;;;;1.57;1.33;;;21.00;50.20;21.60;101691.00;;;;5008057;28;20603;-43
2022/08/07 08:07:12;;;;;;;1.47;1.37;;;21.00;50.20;21.60;101692.00;;;;4991433;28;20199;-43
2022/08/07 08:09:38;;;;;;;1.87;1.50;;;21.00;50.00;21.60;101687.00;;;;4932028;28;20228;-42
2022/08/07 08:12:04;;;;;;;1.87;1.40;;;21.00;49.80;21.60;101690.00;;;;5027712;28;20214;-43
2022/08/07 08:14:33;;;;;;;2.27;1.30;;;21.00;50.10;21.60;101663.00;;;;5029194;28;20186;-42
2022/08/07 08:17:00;;;;;;;2.20;1.37;;;21.00;50.10;21.60;101691.00;;;;5027533;28;20190;-43
2022/08/07 08:19:27;;;;;;;1.40;1.30;;;20.90;50.20;21.60;101695.00;;;;5029015;28;20231;-43
2022/08/07 08:27:30;;;;;;;1.77;1.33;;;21.00;50.00;21.60;101686.00;;;;5028100;28;20165;-43
2022/08/07 08:30:03;;;;;;;2.10;1.33;;;20.90;50.00;21.60;101682.00;;;;5027456;28;20222;-43
2022/08/07 08:32:30;;;;;;;1.67;1.50;;;20.80;49.90;21.60;101678.00;;;;5027929;28;20178;-42
2022/08/07 08:34:57;;;;;;;1.10;1.10;;;20.80;50.00;21.30;101676.00;;;;5029892;28;20170;-42
2022/08/07 08:37:23;;;;;;;1.20;1.10;;;20.90;50.00;21.50;101673.00;;;;5028817;28;20174;-42
2022/08/07 08:39:50;;;;;;;1.33;1.23;;;20.90;50.00;21.40;101682.00;;;;5042566;28;20261;-43
2022/08/07 08:42:25;;;;;;;1.40;1.30;;;21.00;50.10;21.60;101679.00;;;;5028434;28;20608;-42
2022/08/07 08:45:09;;;;;;;1.70;1.37;;;21.00;50.00;21.60;101680.00;;;;5026918;28;20206;-42
2022/08/07 08:48:07;;;;;;;2.27;1.40;;;21.00;50.20;21.60;101675.00;;;;5028546;28;20199;-43
2022/08/07 08:50:54;;;;;;;1.60;1.50;;;21.10;50.60;21.60;101682.00;;;;5042920;28;20182;-42
2022/08/07 08:53:55;;;;;;;1.40;1.30;;;21.10;50.00;21.60;101682.00;;;;5027114;28;20186;-42
2022/08/07 08:56:43;;;;;;;1.33;1.30;;;21.10;50.20;21.60;101672.00;;;;5027886;28;20249;-42
2022/08/07 09:00:04;;;;;;;1.73;1.30;;;21.10;49.90;21.60;101668.00;;;;5014829;28;20171;-41
2022/08/07 09:02:38;;;;;;;1.53;1.40;;;21.10;49.90;21.60;101656.00;;;;4998623;28;20232;-43
2022/08/07 09:05:37;;;;;;;1.40;1.30;;;21.10;49.30;21.60;101653.00;;;;5004984;28;20206;-42
2022/08/07 09:08:26;;;;;;;1.47;1.20;;;21.10;48.90;21.60;101651.00;;;;4925833;28;20222;-43
2022/08/07 09:11:05;;;;;;;1.40;1.30;;;21.10;49.00;21.70;101653.00;;;;5026973;28;20159;-41
2022/08/07 09:14:12;;;;;;;1.40;1.17;;;21.10;48.90;21.70;101643.00;;;;5027569;28;20169;-42
2022/08/07 09:17:11;;;;;;;1.33;1.23;;;21.20;48.80;21.70;101652.00;;;;5029951;28;20205;-42
2022/08/07 09:19:58;;;;;;;1.53;1.17;;;21.20;49.00;21.70;101648.00;;;;5026612;28;20178;-42
2022/08/07 09:23:02;;;;;;;1.27;1.17;;;21.20;49.00;21.70;101647.00;;;;5027584;28;20653;-42
2022/08/07 09:25:54;;;;;;;2.50;1.30;;;21.20;49.40;21.70;101643.00;;;;5028276;28;20240;-42
2022/08/07 09:28:40;;;;;;;5.87;1.60;;;21.30;49.10;21.70;101641.00;;;;5044277;28;20163;-42
2022/08/07 09:31:19;;;;;;;2.33;1.30;;;21.30;49.30;21.70;101621.00;;;;5026940;28;20174;-42
2022/08/07 09:34:02;;;;;;;4.30;1.20;;;21.30;49.10;21.80;101639.00;;;;5026435;28;20185;-42
2022/08/07 09:36:47;;;;;;;4.67;1.50;;;21.30;49.20;21.80;101634.00;;;;5027089;28;20194;-42
2022/08/07 09:39:29;;;;;;;3.70;1.50;;;21.30;49.60;21.80;101634.00;;;;5026612;28;20155;-42
2022/08/07 09:41:55;;;;;;;1.40;1.30;;;21.40;49.60;21.80;101635.00;;;;5025991;28;20724;-42
2022/08/07 09:45:08;;;;;;;2.53;1.37;;;21.40;48.80;21.90;101628.00;;;;5026966;28;20245;-43
2022/08/07 09:47:58;;;;;;;2.43;1.40;;;21.40;48.40;21.90;101632.00;;;;5023697;28;20213;-44
2022/08/07 09:50:50;;;;;;;2.50;1.40;;;21.40;49.20;21.90;101622.00;;;;5026875;28;20202;-43
2022/08/07 09:53:16;;;;;;;1.20;1.10;;;21.50;47.80;21.90;101621.00;;;;5042560;28;20158;-42
2022/08/07 09:56:16;;;;;;;1.60;1.40;;;21.40;47.50;22.00;101619.00;;;;5026196;28;20257;-43
2022/08/07 09:58:53;;;;;;;2.67;1.40;;;21.50;48.60;22.00;101622.00;;;;5027956;28;20163;-45
2022/08/07 10:01:50;;;;;;;1.97;1.20;;;21.50;46.70;22.00;101618.00;;;;5026597;28;20155;-45
2022/08/07 10:04:33;;;;;;;6.43;1.70;;;21.50;47.00;22.00;101618.00;;;;5007166;28;20182;-43
2022/08/07 10:07:40;;;;;;;1.50;1.30;;;21.50;47.50;22.10;101581.00;;;;5006728;28;20206;-43
2022/08/07 10:10:39;;;;;;;2.20;1.40;;;21.50;47.10;22.10;101607.00;;;;5010049;28;20197;-43
2022/08/07 10:13:43;;;;;;;1.57;1.40;;;21.50;45.70;22.10;101604.00;;;;5025723;28;20190;-43
2022/08/07 10:16:39;;;;;;;1.30;1.20;;;21.60;45.20;22.00;101609.00;;;;5027909;28;20187;-43
2022/08/07 10:19:51;;;;;;;1.30;1.13;;;21.60;45.50;22.10;101597.00;;;;5025408;28;20151;-43
2022/08/07 10:22:43;;;;;;;3.00;1.10;;;21.60;47.00;22.10;101600.00;;;;5026803;28;20193;-44
2022/08/07 10:26:03;;;;;;;1.60;1.40;;;21.70;47.70;22.20;101613.00;;;;5028706;28;20602;-42
2022/08/07 10:28:41;;;;;;;1.50;1.40;;;21.80;47.40;22.20;101601.00;;;;5024223;28;20182;-42
2022/08/07 10:31:45;;;;;;;2.10;1.50;;;21.80;48.20;22.30;101597.00;;;;5026818;28;20159;-42
2022/08/07 10:34:31;;;;;;;2.03;1.10;;;21.80;49.30;22.30;101591.00;;;;5023562;28;20550;-42
2022/08/07 10:37:27;;;;;;;1.50;1.40;;;21.80;49.50;22.30;101588.00;;;;5025108;28;20788;-43
2022/08/07 10:40:13;;;;;;;3.43;1.40;;;21.90;49.60;22.30;101575.00;;;;5024905;28;20258;-42
2022/08/07 10:43:02;;;;;;;1.90;1.53;;;21.90;50.50;22.40;101577.00;;;;5027901;28;20250;-42
2022/08/07 10:45:37;;;;;;;1.73;1.53;;;22.00;51.90;22.50;101577.00;;;;5026394;28;20806;-42
2022/08/07 10:48:40;;;;;;;4.87;1.60;;;22.00;52.70;22.50;101580.00;;;;5025983;28;20249;-42
2022/08/07 10:51:18;;;;;;;5.63;1.73;;;22.00;53.30;22.50;101552.00;;;;5025507;28;20274;-42
2022/08/07 10:54:07;;;;;;;3.63;1.77;;;22.10;53.30;22.60;101568.00;;;;5026404;28;20346;-42
2022/08/07 10:56:49;;;;;;;4.57;1.63;;;22.10;53.10;22.60;101552.00;;;;5026081;28;20241;-42
2022/08/07 10:59:33;;;;;;;3.33;1.47;;;22.10;52.90;22.60;101562.00;;;;5026105;28;20773;-42
2022/08/07 11:02:27;;;;;;;4.77;1.70;;;22.20;53.40;22.70;101555.00;;;;5023951;28;20208;-42
2022/08/07 11:05:38;;;;;;;2.40;1.50;;;22.20;53.20;22.70;101561.00;;;;5009744;28;20552;-42
2022/08/07 11:08:18;;;;;;;1.53;1.30;;;22.20;53.60;22.70;101546.00;;;;4941682;28;20262;-42
2022/08/07 11:11:26;;;;;;;2.53;1.47;;;22.20;53.50;22.80;101550.00;;;;5028440;28;20179;-42
2022/08/07 11:13:58;;;;;;;1.50;1.40;;;22.30;53.50;22.80;101538.00;;;;5030160;28;20178;-42
2022/08/07 11:16:48;;;;;;;3.53;1.47;;;22.30;53.50;22.80;101535.00;;;;5029023;28;20274;-42